Terminal Aerodrome Forecast
Issued by NWS

Home | Current Version | Previous Version | Text Only | Print | Product List | Glossary On
Versions: 1 2 3 4 5 6 7 8 9 10 11 12 13 14 15 16 17 18 19 20 21 22 23 24 25
000
FTUS44 KMAF 300800 AAC
TAFINK
TAF AMD
KINK 300842Z 3009/3106 09011KT P6SM SCT030 BKN050
     FM301100 36011G20KT P6SM SCT020 BKN035
      TEMPO 3011/3015 1SM +TSRA BR BKN015 OVC040CB
     FM301500 04011G20KT P6SM BKN015=

USA.gov is the U.S. government's official web portal to all federal, state and local government web resources and services.